sensor_id;sensor_type;location;lat;lon;timestamp;P1;durP1;ratioP1;P2;durP2;ratioP2
74059;SDS011;62414;53.436;8.828;2023-04-03T00:01:33;7.30;;;0.90;;
74059;SDS011;62414;53.436;8.828;2023-04-03T00:04:00;5.55;;;1.25;;
74059;SDS011;62414;53.436;8.828;2023-04-03T00:06:26;4.60;;;0.80;;
74059;SDS011;62414;53.436;8.828;2023-04-03T00:08:51;5.57;;;1.00;;
74059;SDS011;62414;53.436;8.828;2023-04-03T00:11:17;4.03;;;0.87;;
74059;SDS011;62414;53.436;8.828;2023-04-03T00:13:43;4.30;;;1.20;;
74059;SDS011;62414;53.436;8.828;2023-04-03T00:16:09;4.53;;;1.10;;
74059;SDS011;62414;53.436;8.828;2023-04-03T00:18:35;7.80;;;1.13;;
74059;SDS011;62414;53.436;8.828;2023-04-03T00:21:02;8.07;;;1.20;;
74059;SDS011;62414;53.436;8.828;2023-04-03T00:23:28;6.30;;;1.13;;
74059;SDS011;62414;53.436;8.828;2023-04-03T00:25:54;5.25;;;1.08;;
74059;SDS011;62414;53.436;8.828;2023-04-03T00:28:19;4.90;;;1.07;;
74059;SDS011;62414;53.436;8.828;2023-04-03T00:30:45;8.40;;;1.20;;
74059;SDS011;62414;53.436;8.828;2023-04-03T00:33:11;7.45;;;1.25;;
74059;SDS011;62414;53.436;8.828;2023-04-03T00:35:37;5.00;;;1.10;;
74059;SDS011;62414;53.436;8.828;2023-04-03T00:38:04;6.97;;;1.27;;
74059;SDS011;62414;53.436;8.828;2023-04-03T00:40:32;5.47;;;1.00;;
74059;SDS011;62414;53.436;8.828;2023-04-03T00:42:59;7.50;;;1.10;;
74059;SDS011;62414;53.436;8.828;2023-04-03T00:45:32;5.85;;;1.20;;
74059;SDS011;62414;53.436;8.828;2023-04-03T00:47:59;4.70;;;1.00;;
74059;SDS011;62414;53.436;8.828;2023-04-03T00:50:26;4.38;;;1.10;;
74059;SDS011;62414;53.436;8.828;2023-04-03T00:52:52;7.17;;;1.30;;
74059;SDS011;62414;53.436;8.828;2023-04-03T00:55:19;6.88;;;1.30;;
74059;SDS011;62414;53.436;8.828;2023-04-03T00:57:46;7.45;;;1.20;;
74059;SDS011;62414;53.436;8.828;2023-04-03T01:00:13;6.00;;;1.20;;
74059;SDS011;62414;53.436;8.828;2023-04-03T01:02:42;4.32;;;1.10;;
74059;SDS011;62414;53.436;8.828;2023-04-03T01:05:09;4.37;;;1.33;;
74059;SDS011;62414;53.436;8.828;2023-04-03T01:07:36;5.50;;;1.42;;
74059;SDS011;62414;53.436;8.828;2023-04-03T01:10:02;6.72;;;1.20;;
74059;SDS011;62414;53.436;8.828;2023-04-03T01:12:31;6.57;;;1.20;;
74059;SDS011;62414;53.436;8.828;2023-04-03T01:14:58;8.00;;;1.20;;
74059;SDS011;62414;53.436;8.828;2023-04-03T01:17:29;6.88;;;1.38;;
74059;SDS011;62414;53.436;8.828;2023-04-03T01:19:59;5.50;;;1.20;;
74059;SDS011;62414;53.436;8.828;2023-04-03T01:22:41;8.90;;;1.25;;
74059;SDS011;62414;53.436;8.828;2023-04-03T01:25:11;8.33;;;1.20;;
74059;SDS011;62414;53.436;8.828;2023-04-03T01:27:38;5.03;;;1.08;;
74059;SDS011;62414;53.436;8.828;2023-04-03T01:30:05;7.30;;;1.20;;
74059;SDS011;62414;53.436;8.828;2023-04-03T01:32:32;6.43;;;1.08;;
74059;SDS011;62414;53.436;8.828;2023-04-03T01:34:58;6.07;;;1.30;;
74059;SDS011;62414;53.436;8.828;2023-04-03T01:37:23;6.75;;;1.20;;
74059;SDS011;62414;53.436;8.828;2023-04-03T01:39:49;7.53;;;1.10;;
74059;SDS011;62414;53.436;8.828;2023-04-03T01:42:14;4.53;;;1.10;;
74059;SDS011;62414;53.436;8.828;2023-04-03T01:44:42;8.20;;;1.20;;
74059;SDS011;62414;53.436;8.828;2023-04-03T01:47:08;5.32;;;1.40;;
74059;SDS011;62414;53.436;8.828;2023-04-03T01:49:35;6.20;;;1.30;;
74059;SDS011;62414;53.436;8.828;2023-04-03T01:52:01;7.23;;;1.17;;
74059;SDS011;62414;53.436;8.828;2023-04-03T01:54:26;8.43;;;1.42;;
74059;SDS011;62414;53.436;8.828;2023-04-03T01:56:52;6.53;;;1.20;;
74059;SDS011;62414;53.436;8.828;2023-04-03T01:59:19;6.10;;;1.20;;
74059;SDS011;62414;53.436;8.828;2023-04-03T02:01:44;7.77;;;1.27;;
74059;SDS011;62414;53.436;8.828;2023-04-03T02:04:10;7.72;;;1.65;;
74059;SDS011;62414;53.436;8.828;2023-04-03T02:06:37;5.63;;;1.30;;
74059;SDS011;62414;53.436;8.828;2023-04-03T02:09:03;5.03;;;1.10;;
74059;SDS011;62414;53.436;8.828;2023-04-03T02:11:29;8.75;;;1.38;;
74059;SDS011;62414;53.436;8.828;2023-04-03T02:13:55;6.13;;;1.30;;
74059;SDS011;62414;53.436;8.828;2023-04-03T02:16:20;6.97;;;1.43;;
74059;SDS011;62414;53.436;8.828;2023-04-03T02:18:48;7.25;;;1.23;;
74059;SDS011;62414;53.436;8.828;2023-04-03T02:21:13;5.47;;;1.23;;
74059;SDS011;62414;53.436;8.828;2023-04-03T02:23:40;5.27;;;1.37;;
74059;SDS011;62414;53.436;8.828;2023-04-03T02:26:06;8.00;;;1.55;;
74059;SDS011;62414;53.436;8.828;2023-04-03T02:28:33;5.65;;;1.40;;
74059;SDS011;62414;53.436;8.828;2023-04-03T02:30:59;6.38;;;1.23;;
74059;SDS011;62414;53.436;8.828;2023-04-03T02:33:24;8.17;;;1.77;;
74059;SDS011;62414;53.436;8.828;2023-04-03T02:35:52;9.60;;;1.50;;
74059;SDS011;62414;53.436;8.828;2023-04-03T02:38:18;4.83;;;1.10;;
74059;SDS011;62414;53.436;8.828;2023-04-03T02:40:44;5.90;;;1.30;;
74059;SDS011;62414;53.436;8.828;2023-04-03T02:43:10;8.40;;;1.45;;
74059;SDS011;62414;53.436;8.828;2023-04-03T02:45:36;7.97;;;1.40;;
74059;SDS011;62414;53.436;8.828;2023-04-03T02:48:03;7.63;;;1.50;;
74059;SDS011;62414;53.436;8.828;2023-04-03T02:50:29;5.53;;;1.30;;
74059;SDS011;62414;53.436;8.828;2023-04-03T02:52:54;5.00;;;1.30;;
74059;SDS011;62414;53.436;8.828;2023-04-03T02:55:20;8.50;;;1.42;;
74059;SDS011;62414;53.436;8.828;2023-04-03T02:57:50;8.18;;;1.50;;
74059;SDS011;62414;53.436;8.828;2023-04-03T03:00:15;8.23;;;1.13;;
74059;SDS011;62414;53.436;8.828;2023-04-03T03:02:41;6.05;;;1.15;;
74059;SDS011;62414;53.436;8.828;2023-04-03T03:05:07;8.03;;;1.20;;
74059;SDS011;62414;53.436;8.828;2023-04-03T03:07:33;7.60;;;1.42;;
74059;SDS011;62414;53.436;8.828;2023-04-03T03:09:58;7.50;;;1.52;;
74059;SDS011;62414;53.436;8.828;2023-04-03T03:12:25;7.23;;;1.20;;
74059;SDS011;62414;53.436;8.828;2023-04-03T03:14:52;3.78;;;1.25;;
74059;SDS011;62414;53.436;8.828;2023-04-03T03:17:18;8.32;;;1.50;;
74059;SDS011;62414;53.436;8.828;2023-04-03T03:19:43;8.13;;;1.67;;
74059;SDS011;62414;53.436;8.828;2023-04-03T03:22:09;6.17;;;1.33;;
74059;SDS011;62414;53.436;8.828;2023-04-03T03:24:34;10.55;;;2.10;;
74059;SDS011;62414;53.436;8.828;2023-04-03T03:27:00;7.40;;;1.70;;
74059;SDS011;62414;53.436;8.828;2023-04-03T03:29:25;9.30;;;1.60;;
74059;SDS011;62414;53.436;8.828;2023-04-03T03:31:52;7.40;;;1.40;;
74059;SDS011;62414;53.436;8.828;2023-04-03T03:34:18;7.68;;;1.63;;
74059;SDS011;62414;53.436;8.828;2023-04-03T03:36:43;5.97;;;1.30;;
74059;SDS011;62414;53.436;8.828;2023-04-03T03:39:09;7.87;;;1.60;;
74059;SDS011;62414;53.436;8.828;2023-04-03T03:41:35;8.32;;;1.45;;
74059;SDS011;62414;53.436;8.828;2023-04-03T03:44:01;9.13;;;1.90;;
74059;SDS011;62414;53.436;8.828;2023-04-03T03:46:30;7.45;;;1.88;;
74059;SDS011;62414;53.436;8.828;2023-04-03T03:48:56;10.20;;;2.13;;
74059;SDS011;62414;53.436;8.828;2023-04-03T03:51:22;9.73;;;2.03;;
74059;SDS011;62414;53.436;8.828;2023-04-03T03:53:48;6.10;;;1.57;;
74059;SDS011;62414;53.436;8.828;2023-04-03T03:56:17;6.55;;;1.33;;
74059;SDS011;62414;53.436;8.828;2023-04-03T03:58:44;8.05;;;1.60;;
74059;SDS011;62414;53.436;8.828;2023-04-03T04:01:09;8.37;;;1.93;;
74059;SDS011;62414;53.436;8.828;2023-04-03T04:03:40;7.47;;;2.13;;
74059;SDS011;62414;53.436;8.828;2023-04-03T04:06:09;7.65;;;1.80;;
74059;SDS011;62414;53.436;8.828;2023-04-03T04:08:35;9.20;;;2.03;;
74059;SDS011;62414;53.436;8.828;2023-04-03T04:11:00;8.23;;;1.83;;
74059;SDS011;62414;53.436;8.828;2023-04-03T04:13:27;6.05;;;1.92;;
74059;SDS011;62414;53.436;8.828;2023-04-03T04:15:53;8.82;;;1.65;;
74059;SDS011;62414;53.436;8.828;2023-04-03T04:18:18;5.77;;;1.50;;
74059;SDS011;62414;53.436;8.828;2023-04-03T04:20:46;7.25;;;1.50;;
74059;SDS011;62414;53.436;8.828;2023-04-03T04:23:14;10.75;;;1.70;;
74059;SDS011;62414;53.436;8.828;2023-04-03T04:25:40;8.27;;;1.57;;
74059;SDS011;62414;53.436;8.828;2023-04-03T04:28:06;5.75;;;1.70;;
74059;SDS011;62414;53.436;8.828;2023-04-03T04:30:31;8.03;;;1.70;;
74059;SDS011;62414;53.436;8.828;2023-04-03T04:32:57;16.60;;;2.05;;
74059;SDS011;62414;53.436;8.828;2023-04-03T04:35:24;7.93;;;1.70;;
74059;SDS011;62414;53.436;8.828;2023-04-03T04:37:51;12.15;;;2.17;;
74059;SDS011;62414;53.436;8.828;2023-04-03T04:40:18;6.67;;;1.50;;
74059;SDS011;62414;53.436;8.828;2023-04-03T04:42:44;6.97;;;2.20;;
74059;SDS011;62414;53.436;8.828;2023-04-03T04:45:10;9.60;;;2.00;;
74059;SDS011;62414;53.436;8.828;2023-04-03T04:47:37;8.20;;;1.90;;
74059;SDS011;62414;53.436;8.828;2023-04-03T04:50:04;12.60;;;1.98;;
74059;SDS011;62414;53.436;8.828;2023-04-03T04:52:31;7.55;;;1.55;;
74059;SDS011;62414;53.436;8.828;2023-04-03T04:54:57;8.73;;;1.80;;
74059;SDS011;62414;53.436;8.828;2023-04-03T04:57:24;8.00;;;2.13;;
74059;SDS011;62414;53.436;8.828;2023-04-03T04:59:49;7.72;;;2.03;;
74059;SDS011;62414;53.436;8.828;2023-04-03T05:02:15;8.80;;;2.13;;
74059;SDS011;62414;53.436;8.828;2023-04-03T05:04:43;6.82;;;2.20;;
74059;SDS011;62414;53.436;8.828;2023-04-03T05:07:14;10.20;;;2.30;;
74059;SDS011;62414;53.436;8.828;2023-04-03T05:09:40;5.77;;;1.80;;
74059;SDS011;62414;53.436;8.828;2023-04-03T05:12:06;11.95;;;2.35;;
74059;SDS011;62414;53.436;8.828;2023-04-03T05:14:39;9.17;;;2.30;;
74059;SDS011;62414;53.436;8.828;2023-04-03T05:17:07;9.43;;;2.33;;
74059;SDS011;62414;53.436;8.828;2023-04-03T05:19:36;8.20;;;2.35;;
74059;SDS011;62414;53.436;8.828;2023-04-03T05:22:05;7.75;;;2.00;;
74059;SDS011;62414;53.436;8.828;2023-04-03T05:24:30;7.07;;;2.10;;
74059;SDS011;62414;53.436;8.828;2023-04-03T05:26:56;10.30;;;2.10;;
74059;SDS011;62414;53.436;8.828;2023-04-03T05:29:22;11.00;;;2.30;;
74059;SDS011;62414;53.436;8.828;2023-04-03T05:31:49;7.55;;;2.33;;
74059;SDS011;62414;53.436;8.828;2023-04-03T05:34:16;8.57;;;2.88;;
74059;SDS011;62414;53.436;8.828;2023-04-03T05:36:42;10.95;;;2.70;;
74059;SDS011;62414;53.436;8.828;2023-04-03T05:39:08;9.07;;;2.50;;
74059;SDS011;62414;53.436;8.828;2023-04-03T05:41:37;9.00;;;2.85;;
74059;SDS011;62414;53.436;8.828;2023-04-03T05:44:03;9.88;;;2.70;;
74059;SDS011;62414;53.436;8.828;2023-04-03T05:46:28;7.87;;;2.40;;
74059;SDS011;62414;53.436;8.828;2023-04-03T05:48:57;10.93;;;2.70;;
74059;SDS011;62414;53.436;8.828;2023-04-03T05:51:29;7.70;;;2.47;;
74059;SDS011;62414;53.436;8.828;2023-04-03T05:54:03;8.33;;;2.47;;
74059;SDS011;62414;53.436;8.828;2023-04-03T05:56:33;8.35;;;2.50;;
74059;SDS011;62414;53.436;8.828;2023-04-03T05:58:58;10.25;;;2.53;;
74059;SDS011;62414;53.436;8.828;2023-04-03T06:01:25;7.23;;;2.50;;
74059;SDS011;62414;53.436;8.828;2023-04-03T06:03:50;8.70;;;2.50;;
74059;SDS011;62414;53.436;8.828;2023-04-03T06:06:18;11.07;;;2.72;;
74059;SDS011;62414;53.436;8.828;2023-04-03T06:08:43;9.50;;;2.87;;
74059;SDS011;62414;53.436;8.828;2023-04-03T06:11:10;9.45;;;2.72;;
74059;SDS011;62414;53.436;8.828;2023-04-03T06:13:36;8.70;;;2.60;;
74059;SDS011;62414;53.436;8.828;2023-04-03T06:16:01;9.90;;;2.60;;
74059;SDS011;62414;53.436;8.828;2023-04-03T06:18:27;7.83;;;2.73;;
74059;SDS011;62414;53.436;8.828;2023-04-03T06:20:52;10.70;;;2.83;;
74059;SDS011;62414;53.436;8.828;2023-04-03T06:23:20;8.07;;;2.80;;
74059;SDS011;62414;53.436;8.828;2023-04-03T06:25:45;9.43;;;2.53;;
74059;SDS011;62414;53.436;8.828;2023-04-03T06:28:11;6.60;;;2.47;;
74059;SDS011;62414;53.436;8.828;2023-04-03T06:30:36;9.75;;;2.20;;
74059;SDS011;62414;53.436;8.828;2023-04-03T06:33:02;9.10;;;2.50;;
74059;SDS011;62414;53.436;8.828;2023-04-03T06:35:28;9.40;;;3.13;;
74059;SDS011;62414;53.436;8.828;2023-04-03T06:37:53;8.23;;;2.17;;
74059;SDS011;62414;53.436;8.828;2023-04-03T06:40:21;9.70;;;2.20;;
74059;SDS011;62414;53.436;8.828;2023-04-03T06:42:48;8.82;;;2.60;;
74059;SDS011;62414;53.436;8.828;2023-04-03T06:45:13;10.13;;;2.30;;
74059;SDS011;62414;53.436;8.828;2023-04-03T06:47:39;7.63;;;2.10;;
74059;SDS011;62414;53.436;8.828;2023-04-03T06:50:05;10.10;;;2.53;;
74059;SDS011;62414;53.436;8.828;2023-04-03T06:52:31;12.90;;;3.20;;
74059;SDS011;62414;53.436;8.828;2023-04-03T06:54:56;9.20;;;2.70;;
74059;SDS011;62414;53.436;8.828;2023-04-03T06:57:23;6.20;;;2.20;;
74059;SDS011;62414;53.436;8.828;2023-04-03T06:59:48;8.48;;;2.15;;
74059;SDS011;62414;53.436;8.828;2023-04-03T07:02:14;6.27;;;2.00;;
74059;SDS011;62414;53.436;8.828;2023-04-03T07:04:39;6.40;;;1.77;;
74059;SDS011;62414;53.436;8.828;2023-04-03T07:07:05;4.88;;;1.70;;
74059;SDS011;62414;53.436;8.828;2023-04-03T07:09:30;7.00;;;1.43;;
74059;SDS011;62414;53.436;8.828;2023-04-03T07:11:56;8.17;;;1.53;;
74059;SDS011;62414;53.436;8.828;2023-04-03T07:14:22;6.78;;;1.70;;
74059;SDS011;62414;53.436;8.828;2023-04-03T07:16:48;9.70;;;2.00;;
74059;SDS011;62414;53.436;8.828;2023-04-03T07:19:13;7.90;;;2.05;;
74059;SDS011;62414;53.436;8.828;2023-04-03T07:21:39;7.53;;;1.40;;
74059;SDS011;62414;53.436;8.828;2023-04-03T07:24:04;6.73;;;1.40;;
74059;SDS011;62414;53.436;8.828;2023-04-03T07:26:30;6.47;;;1.20;;
74059;SDS011;62414;53.436;8.828;2023-04-03T07:28:55;7.50;;;1.17;;
74059;SDS011;62414;53.436;8.828;2023-04-03T07:31:22;4.85;;;1.00;;
74059;SDS011;62414;53.436;8.828;2023-04-03T07:33:48;5.00;;;1.07;;
74059;SDS011;62414;53.436;8.828;2023-04-03T07:36:14;4.07;;;0.85;;
74059;SDS011;62414;53.436;8.828;2023-04-03T07:38:41;3.90;;;0.87;;
74059;SDS011;62414;53.436;8.828;2023-04-03T07:41:06;5.03;;;0.90;;
74059;SDS011;62414;53.436;8.828;2023-04-03T07:43:36;3.97;;;0.57;;
74059;SDS011;62414;53.436;8.828;2023-04-03T07:46:02;7.17;;;0.60;;
74059;SDS011;62414;53.436;8.828;2023-04-03T07:48:31;7.25;;;0.70;;
74059;SDS011;62414;53.436;8.828;2023-04-03T07:50:58;4.00;;;0.60;;
74059;SDS011;62414;53.436;8.828;2023-04-03T07:53:24;4.38;;;0.52;;
74059;SDS011;62414;53.436;8.828;2023-04-03T07:55:50;4.33;;;0.70;;
74059;SDS011;62414;53.436;8.828;2023-04-03T07:58:16;6.37;;;0.60;;
74059;SDS011;62414;53.436;8.828;2023-04-03T08:00:42;5.60;;;0.50;;
74059;SDS011;62414;53.436;8.828;2023-04-03T08:03:09;5.73;;;0.50;;
74059;SDS011;62414;53.436;8.828;2023-04-03T08:05:37;3.25;;;0.50;;
74059;SDS011;62414;53.436;8.828;2023-04-03T08:08:03;5.10;;;0.50;;
74059;SDS011;62414;53.436;8.828;2023-04-03T08:10:29;4.67;;;0.47;;
74059;SDS011;62414;53.436;8.828;2023-04-03T08:12:55;3.58;;;0.60;;
74059;SDS011;62414;53.436;8.828;2023-04-03T08:15:20;3.20;;;0.70;;
74059;SDS011;62414;53.436;8.828;2023-04-03T08:17:45;4.80;;;0.30;;
74059;SDS011;62414;53.436;8.828;2023-04-03T08:20:11;6.30;;;1.38;;
74059;SDS011;62414;53.436;8.828;2023-04-03T08:22:38;3.80;;;0.43;;
74059;SDS011;62414;53.436;8.828;2023-04-03T08:25:03;4.97;;;0.43;;
74059;SDS011;62414;53.436;8.828;2023-04-03T08:27:29;4.95;;;0.30;;
74059;SDS011;62414;53.436;8.828;2023-04-03T08:29:55;2.47;;;0.30;;
74059;SDS011;62414;53.436;8.828;2023-04-03T08:32:20;3.57;;;0.60;;
74059;SDS011;62414;53.436;8.828;2023-04-03T08:34:46;2.72;;;0.40;;
74059;SDS011;62414;53.436;8.828;2023-04-03T08:37:11;3.40;;;0.67;;
74059;SDS011;62414;53.436;8.828;2023-04-03T08:39:38;5.37;;;1.80;;
74059;SDS011;62414;53.436;8.828;2023-04-03T08:42:05;5.80;;;0.68;;
74059;SDS011;62414;53.436;8.828;2023-04-03T08:44:35;6.15;;;0.80;;
74059;SDS011;62414;53.436;8.828;2023-04-03T08:47:06;3.63;;;0.30;;
74059;SDS011;62414;53.436;8.828;2023-04-03T08:49:37;7.07;;;2.08;;
74059;SDS011;62414;53.436;8.828;2023-04-03T08:52:07;3.60;;;0.90;;
74059;SDS011;62414;53.436;8.828;2023-04-03T08:54:37;20.00;;;10.75;;
74059;SDS011;62414;53.436;8.828;2023-04-03T08:57:12;5.22;;;0.85;;
74059;SDS011;62414;53.436;8.828;2023-04-03T08:59:38;3.80;;;0.40;;
74059;SDS011;62414;53.436;8.828;2023-04-03T09:02:11;2.85;;;0.40;;
74059;SDS011;62414;53.436;8.828;2023-04-03T09:04:44;3.92;;;0.40;;
74059;SDS011;62414;53.436;8.828;2023-04-03T09:07:11;2.83;;;0.40;;
74059;SDS011;62414;53.436;8.828;2023-04-03T09:09:41;3.35;;;0.30;;
74059;SDS011;62414;53.436;8.828;2023-04-03T09:12:12;3.08;;;0.30;;
74059;SDS011;62414;53.436;8.828;2023-04-03T09:14:42;2.88;;;0.45;;
74059;SDS011;62414;53.436;8.828;2023-04-03T09:17:14;2.73;;;0.40;;
74059;SDS011;62414;53.436;8.828;2023-04-03T09:19:46;3.33;;;0.30;;
74059;SDS011;62414;53.436;8.828;2023-04-03T09:22:16;3.13;;;0.32;;
74059;SDS011;62414;53.436;8.828;2023-04-03T09:24:44;2.92;;;0.30;;
74059;SDS011;62414;53.436;8.828;2023-04-03T09:27:11;4.65;;;0.30;;
74059;SDS011;62414;53.436;8.828;2023-04-03T09:29:38;3.47;;;0.30;;
74059;SDS011;62414;53.436;8.828;2023-04-03T09:32:11;3.60;;;0.40;;
74059;SDS011;62414;53.436;8.828;2023-04-03T09:34:44;3.88;;;0.40;;
74059;SDS011;62414;53.436;8.828;2023-04-03T09:37:09;3.43;;;0.40;;
74059;SDS011;62414;53.436;8.828;2023-04-03T09:39:59;2.60;;;0.40;;
74059;SDS011;62414;53.436;8.828;2023-04-03T09:42:25;3.50;;;0.30;;
74059;SDS011;62414;53.436;8.828;2023-04-03T09:44:53;3.70;;;0.60;;
74059;SDS011;62414;53.436;8.828;2023-04-03T09:47:22;3.28;;;0.38;;
74059;SDS011;62414;53.436;8.828;2023-04-03T09:49:49;2.88;;;0.35;;
74059;SDS011;62414;53.436;8.828;2023-04-03T09:52:19;4.53;;;0.40;;
74059;SDS011;62414;53.436;8.828;2023-04-03T09:54:45;2.97;;;0.50;;
74059;SDS011;62414;53.436;8.828;2023-04-03T09:57:12;2.10;;;0.30;;
74059;SDS011;62414;53.436;8.828;2023-04-03T09:59:41;2.67;;;0.30;;
74059;SDS011;62414;53.436;8.828;2023-04-03T10:04:54;2.55;;;0.30;;
74059;SDS011;62414;53.436;8.828;2023-04-03T10:07:25;4.10;;;0.40;;
74059;SDS011;62414;53.436;8.828;2023-04-03T10:09:54;3.50;;;0.47;;
74059;SDS011;62414;53.436;8.828;2023-04-03T10:12:22;2.40;;;0.30;;
74059;SDS011;62414;53.436;8.828;2023-04-03T10:14:53;3.00;;;0.40;;
74059;SDS011;62414;53.436;8.828;2023-04-03T10:17:21;2.63;;;0.40;;
74059;SDS011;62414;53.436;8.828;2023-04-03T10:19:53;2.97;;;0.40;;
74059;SDS011;62414;53.436;8.828;2023-04-03T10:22:22;2.80;;;0.40;;
74059;SDS011;62414;53.436;8.828;2023-04-03T10:24:56;2.78;;;0.30;;
74059;SDS011;62414;53.436;8.828;2023-04-03T10:27:31;2.38;;;0.20;;
74059;SDS011;62414;53.436;8.828;2023-04-03T10:30:04;3.00;;;0.40;;
74059;SDS011;62414;53.436;8.828;2023-04-03T10:32:40;2.65;;;0.30;;
74059;SDS011;62414;53.436;8.828;2023-04-03T10:35:12;2.90;;;0.35;;
74059;SDS011;62414;53.436;8.828;2023-04-03T10:37:47;4.38;;;0.40;;
74059;SDS011;62414;53.436;8.828;2023-04-03T10:40:21;3.33;;;0.40;;
74059;SDS011;62414;53.436;8.828;2023-04-03T10:42:52;3.70;;;0.40;;
74059;SDS011;62414;53.436;8.828;2023-04-03T10:45:21;3.53;;;0.60;;
74059;SDS011;62414;53.436;8.828;2023-04-03T10:47:52;3.25;;;0.50;;
74059;SDS011;62414;53.436;8.828;2023-04-03T10:50:24;3.35;;;0.50;;
74059;SDS011;62414;53.436;8.828;2023-04-03T10:52:54;2.95;;;0.40;;
74059;SDS011;62414;53.436;8.828;2023-04-03T10:55:24;4.30;;;0.70;;
74059;SDS011;62414;53.436;8.828;2023-04-03T10:57:56;3.40;;;0.35;;
74059;SDS011;62414;53.436;8.828;2023-04-03T11:00:25;3.45;;;0.60;;
74059;SDS011;62414;53.436;8.828;2023-04-03T11:02:56;3.08;;;0.50;;
74059;SDS011;62414;53.436;8.828;2023-04-03T11:05:26;2.13;;;0.40;;
74059;SDS011;62414;53.436;8.828;2023-04-03T11:07:55;4.20;;;0.47;;
74059;SDS011;62414;53.436;8.828;2023-04-03T11:10:23;2.75;;;0.40;;
74059;SDS011;62414;53.436;8.828;2023-04-03T11:12:52;4.60;;;0.43;;
74059;SDS011;62414;53.436;8.828;2023-04-03T11:15:19;4.30;;;0.50;;
74059;SDS011;62414;53.436;8.828;2023-04-03T11:17:46;4.30;;;0.50;;
74059;SDS011;62414;53.436;8.828;2023-04-03T11:20:16;2.93;;;0.60;;
74059;SDS011;62414;53.436;8.828;2023-04-03T11:22:44;3.97;;;0.65;;
74059;SDS011;62414;53.436;8.828;2023-04-03T11:25:14;2.28;;;0.40;;
74059;SDS011;62414;53.436;8.828;2023-04-03T11:27:43;2.95;;;0.60;;
74059;SDS011;62414;53.436;8.828;2023-04-03T11:30:14;4.78;;;0.52;;
74059;SDS011;62414;53.436;8.828;2023-04-03T11:32:48;2.30;;;0.40;;
74059;SDS011;62414;53.436;8.828;2023-04-03T11:35:42;3.03;;;0.65;;
74059;SDS011;62414;53.436;8.828;2023-04-03T11:38:10;2.92;;;0.55;;
74059;SDS011;62414;53.436;8.828;2023-04-03T11:40:40;2.55;;;0.50;;
74059;SDS011;62414;53.436;8.828;2023-04-03T11:43:17;2.95;;;0.60;;
74059;SDS011;62414;53.436;8.828;2023-04-03T11:45:50;3.57;;;0.73;;
74059;SDS011;62414;53.436;8.828;2023-04-03T11:51:39;2.38;;;0.47;;
74059;SDS011;62414;53.436;8.828;2023-04-03T11:57:03;4.30;;;0.60;;
74059;SDS011;62414;53.436;8.828;2023-04-03T11:59:48;2.73;;;0.60;;
74059;SDS011;62414;53.436;8.828;2023-04-03T12:10:59;3.50;;;0.52;;
74059;SDS011;62414;53.436;8.828;2023-04-03T12:13:40;2.83;;;0.55;;
74059;SDS011;62414;53.436;8.828;2023-04-03T12:16:07;3.35;;;0.63;;
74059;SDS011;62414;53.436;8.828;2023-04-03T12:21:13;3.85;;;0.50;;
74059;SDS011;62414;53.436;8.828;2023-04-03T12:26:25;6.18;;;0.80;;
74059;SDS011;62414;53.436;8.828;2023-04-03T12:28:51;2.78;;;0.40;;
74059;SDS011;62414;53.436;8.828;2023-04-03T12:31:18;2.70;;;0.60;;
74059;SDS011;62414;53.436;8.828;2023-04-03T12:33:50;3.92;;;0.50;;
74059;SDS011;62414;53.436;8.828;2023-04-03T12:36:28;4.57;;;0.60;;
74059;SDS011;62414;53.436;8.828;2023-04-03T12:39:03;3.55;;;0.57;;
74059;SDS011;62414;53.436;8.828;2023-04-03T12:41:57;3.53;;;0.57;;
74059;SDS011;62414;53.436;8.828;2023-04-03T12:44:35;2.80;;;0.60;;
74059;SDS011;62414;53.436;8.828;2023-04-03T12:47:07;4.05;;;1.25;;
74059;SDS011;62414;53.436;8.828;2023-04-03T12:49:43;2.80;;;0.80;;
74059;SDS011;62414;53.436;8.828;2023-04-03T12:52:16;3.10;;;0.60;;
74059;SDS011;62414;53.436;8.828;2023-04-03T12:54:44;3.85;;;1.45;;
74059;SDS011;62414;53.436;8.828;2023-04-03T12:57:11;2.87;;;0.63;;
74059;SDS011;62414;53.436;8.828;2023-04-03T12:59:37;2.33;;;0.60;;
74059;SDS011;62414;53.436;8.828;2023-04-03T13:02:03;3.73;;;0.67;;
74059;SDS011;62414;53.436;8.828;2023-04-03T13:04:40;2.80;;;0.50;;
74059;SDS011;62414;53.436;8.828;2023-04-03T13:07:18;3.30;;;0.80;;
74059;SDS011;62414;53.436;8.828;2023-04-03T13:09:47;4.37;;;1.23;;
74059;SDS011;62414;53.436;8.828;2023-04-03T13:12:20;2.97;;;0.70;;
74059;SDS011;62414;53.436;8.828;2023-04-03T13:14:51;4.20;;;0.70;;
74059;SDS011;62414;53.436;8.828;2023-04-03T13:17:17;2.90;;;1.00;;
74059;SDS011;62414;53.436;8.828;2023-04-03T13:19:42;3.70;;;1.33;;
74059;SDS011;62414;53.436;8.828;2023-04-03T13:22:10;2.80;;;1.00;;
74059;SDS011;62414;53.436;8.828;2023-04-03T13:24:45;3.33;;;0.80;;
74059;SDS011;62414;53.436;8.828;2023-04-03T13:27:11;3.13;;;0.75;;
74059;SDS011;62414;53.436;8.828;2023-04-03T13:29:38;3.17;;;1.10;;
74059;SDS011;62414;53.436;8.828;2023-04-03T13:32:04;4.05;;;2.45;;
74059;SDS011;62414;53.436;8.828;2023-04-03T13:34:35;4.50;;;1.47;;
74059;SDS011;62414;53.436;8.828;2023-04-03T13:37:02;2.95;;;0.88;;
74059;SDS011;62414;53.436;8.828;2023-04-03T13:39:29;3.72;;;1.35;;
74059;SDS011;62414;53.436;8.828;2023-04-03T13:41:57;4.73;;;1.13;;
74059;SDS011;62414;53.436;8.828;2023-04-03T13:44:29;4.18;;;0.90;;
74059;SDS011;62414;53.436;8.828;2023-04-03T13:46:56;3.67;;;1.00;;
74059;SDS011;62414;53.436;8.828;2023-04-03T13:49:27;4.18;;;1.02;;
74059;SDS011;62414;53.436;8.828;2023-04-03T13:51:55;3.08;;;0.70;;
74059;SDS011;62414;53.436;8.828;2023-04-03T13:54:22;2.73;;;0.80;;
74059;SDS011;62414;53.436;8.828;2023-04-03T13:56:52;6.45;;;1.15;;
74059;SDS011;62414;53.436;8.828;2023-04-03T13:59:23;6.70;;;2.25;;
74059;SDS011;62414;53.436;8.828;2023-04-03T14:01:51;3.77;;;1.00;;
74059;SDS011;62414;53.436;8.828;2023-04-03T14:04:20;5.45;;;1.30;;
74059;SDS011;62414;53.436;8.828;2023-04-03T14:06:48;3.58;;;0.75;;
74059;SDS011;62414;53.436;8.828;2023-04-03T14:09:13;2.60;;;0.73;;
74059;SDS011;62414;53.436;8.828;2023-04-03T14:11:39;5.23;;;1.20;;
74059;SDS011;62414;53.436;8.828;2023-04-03T14:14:06;4.25;;;0.80;;
74059;SDS011;62414;53.436;8.828;2023-04-03T14:16:39;3.65;;;1.58;;
74059;SDS011;62414;53.436;8.828;2023-04-03T14:19:05;5.05;;;2.25;;
74059;SDS011;62414;53.436;8.828;2023-04-03T14:21:31;4.00;;;1.50;;
74059;SDS011;62414;53.436;8.828;2023-04-03T14:23:57;3.97;;;1.10;;
74059;SDS011;62414;53.436;8.828;2023-04-03T14:26:23;5.90;;;4.00;;
74059;SDS011;62414;53.436;8.828;2023-04-03T14:28:50;6.88;;;3.20;;
74059;SDS011;62414;53.436;8.828;2023-04-03T14:31:16;3.85;;;1.65;;
74059;SDS011;62414;53.436;8.828;2023-04-03T14:33:44;5.07;;;1.23;;
74059;SDS011;62414;53.436;8.828;2023-04-03T14:36:11;4.20;;;1.58;;
74059;SDS011;62414;53.436;8.828;2023-04-03T14:38:38;3.25;;;0.90;;
74059;SDS011;62414;53.436;8.828;2023-04-03T14:41:04;4.82;;;2.28;;
74059;SDS011;62414;53.436;8.828;2023-04-03T14:43:29;3.90;;;1.07;;
74059;SDS011;62414;53.436;8.828;2023-04-03T14:45:55;5.23;;;0.93;;
74059;SDS011;62414;53.436;8.828;2023-04-03T14:48:21;4.10;;;1.20;;
74059;SDS011;62414;53.436;8.828;2023-04-03T14:50:49;3.17;;;1.00;;
74059;SDS011;62414;53.436;8.828;2023-04-03T14:53:15;4.72;;;0.98;;
74059;SDS011;62414;53.436;8.828;2023-04-03T14:55:42;6.45;;;1.45;;
74059;SDS011;62414;53.436;8.828;2023-04-03T14:58:11;4.43;;;0.90;;
74059;SDS011;62414;53.436;8.828;2023-04-03T15:00:37;2.92;;;0.90;;
74059;SDS011;62414;53.436;8.828;2023-04-03T15:03:03;3.17;;;0.90;;
74059;SDS011;62414;53.436;8.828;2023-04-03T15:05:28;4.10;;;1.00;;
74059;SDS011;62414;53.436;8.828;2023-04-03T15:07:55;3.77;;;1.10;;
74059;SDS011;62414;53.436;8.828;2023-04-03T15:10:23;3.03;;;0.90;;
74059;SDS011;62414;53.436;8.828;2023-04-03T15:12:50;4.13;;;0.95;;
74059;SDS011;62414;53.436;8.828;2023-04-03T15:15:16;4.35;;;0.98;;